createdAt,value
2018-01-14T00:00:17.950Z,1009.06
2018-01-14T00:01:17.943Z,1009.14
2018-01-14T00:02:17.937Z,1009.09
2018-01-14T00:03:17.966Z,1009.06
2018-01-14T00:04:17.987Z,1009.08
2018-01-14T00:05:17.906Z,1009.11
2018-01-14T00:06:17.892Z,1009.07
2018-01-14T00:07:17.881Z,1009.08
2018-01-14T00:08:17.871Z,1009.04
2018-01-14T00:09:17.881Z,1009.03
2018-01-14T00:10:17.897Z,1009.04
2018-01-14T00:11:17.841Z,1009.04
2018-01-14T00:12:17.843Z,1009.09
2018-01-14T00:13:17.827Z,1009.09
2018-01-14T00:14:17.812Z,1009.04
2018-01-14T00:15:17.800Z,1009.08
2018-01-14T00:16:17.792Z,1009.05
2018-01-14T00:17:17.780Z,1009.04
2018-01-14T00:18:17.769Z,1009.03
2018-01-14T00:19:17.759Z,1009.04
2018-01-14T00:20:17.750Z,1009.03
2018-01-14T00:21:17.738Z,1009.01
2018-01-14T00:22:17.727Z,1009.00
2018-01-14T00:23:17.718Z,1009.01
2018-01-14T00:24:17.708Z,1009.03
2018-01-14T00:25:17.697Z,1008.99
2018-01-14T00:26:17.687Z,1008.97
2018-01-14T00:27:17.677Z,1008.97
2018-01-14T00:28:17.679Z,1008.96
2018-01-14T00:29:17.664Z,1008.96
2018-01-14T00:30:17.648Z,1008.96
2018-01-14T00:31:17.636Z,1008.96
2018-01-14T00:32:17.626Z,1008.94
2018-01-14T00:33:17.618Z,1008.93
2018-01-14T00:34:17.606Z,1008.95
2018-01-14T00:35:17.597Z,1008.97
2018-01-14T00:36:17.588Z,1008.93
2018-01-14T00:37:17.576Z,1008.92
2018-01-14T00:38:17.569Z,1008.91
2018-01-14T00:39:17.555Z,1008.92
2018-01-14T00:40:17.546Z,1008.88
2018-01-14T00:41:17.535Z,1008.89
2018-01-14T00:42:17.527Z,1008.92
2018-01-14T00:43:17.561Z,1008.89
2018-01-14T00:44:17.506Z,1008.88
2018-01-14T00:45:17.510Z,1008.89
2018-01-14T00:46:17.512Z,1008.94
2018-01-14T00:47:17.475Z,1008.91
2018-01-14T00:48:17.470Z,1008.89
2018-01-14T00:49:17.485Z,1008.90
2018-01-14T00:50:17.459Z,1008.93
2018-01-14T00:51:17.435Z,1008.92
2018-01-14T00:52:17.455Z,1008.89
2018-01-14T00:53:17.413Z,1008.94
2018-01-14T00:54:17.405Z,1008.97
2018-01-14T00:55:17.396Z,1008.96
2018-01-14T00:56:17.384Z,1008.94
2018-01-14T00:57:17.373Z,1008.92
2018-01-14T00:58:17.369Z,1008.92
2018-01-14T00:59:17.384Z,1008.88
2018-01-14T01:00:17.344Z,1008.84
2018-01-14T01:01:17.333Z,1008.83
2018-01-14T01:02:17.360Z,1008.84
2018-01-14T01:03:17.313Z,1008.84
2018-01-14T01:04:17.305Z,1008.85
2018-01-14T01:05:17.294Z,1008.89
2018-01-14T01:06:17.283Z,1008.88
2018-01-14T01:07:17.275Z,1008.86
2018-01-14T01:08:17.266Z,1008.82
2018-01-14T01:09:17.258Z,1008.82
2018-01-14T01:10:17.245Z,1008.83
2018-01-14T01:11:17.234Z,1008.83
2018-01-14T01:12:17.231Z,1008.85
2018-01-14T01:13:17.216Z,1008.79
2018-01-14T01:14:17.203Z,1008.79
2018-01-14T01:15:17.192Z,1008.73
2018-01-14T01:16:17.182Z,1008.74
2018-01-14T01:17:17.171Z,1008.78
2018-01-14T01:18:17.160Z,1008.78
2018-01-14T01:19:17.152Z,1008.80
2018-01-14T01:20:17.164Z,1008.77
2018-01-14T01:21:17.130Z,1008.75
2018-01-14T01:22:17.121Z,1008.66
2018-01-14T01:23:17.114Z,1008.68
2018-01-14T01:24:17.101Z,1008.72
2018-01-14T01:25:17.090Z,1008.73
2018-01-14T01:26:17.084Z,1008.74
2018-01-14T01:27:17.070Z,1008.75
2018-01-14T01:28:17.062Z,1008.73
2018-01-14T01:29:17.053Z,1008.73
2018-01-14T01:30:17.044Z,1008.72
2018-01-14T01:31:17.033Z,1008.71
2018-01-14T01:32:17.029Z,1008.70
2018-01-14T01:33:17.010Z,1008.65
2018-01-14T01:34:17.002Z,1008.69
2018-01-14T01:35:16.989Z,1008.65
2018-01-14T01:36:17.025Z,1008.68
2018-01-14T01:37:16.997Z,1008.66
2018-01-14T01:38:17.248Z,1008.67
2018-01-14T01:39:16.954Z,1008.60
2018-01-14T01:40:16.955Z,1008.59
2018-01-14T01:41:16.932Z,1008.58
2018-01-14T01:42:16.921Z,1008.60
2018-01-14T01:43:16.921Z,1008.62
2018-01-14T01:44:16.902Z,1008.62
2018-01-14T01:45:16.888Z,1008.63
2018-01-14T01:46:16.878Z,1008.62
2018-01-14T01:47:16.871Z,1008.60
2018-01-14T01:48:16.863Z,1008.61
2018-01-14T01:49:16.860Z,1008.56
2018-01-14T01:50:16.838Z,1008.54
2018-01-14T01:51:16.827Z,1008.50
2018-01-14T01:52:16.818Z,1008.45
2018-01-14T01:53:16.810Z,1008.46
2018-01-14T01:54:16.811Z,1008.48
2018-01-14T01:55:16.787Z,1008.48
2018-01-14T01:56:16.784Z,1008.48
2018-01-14T01:57:16.773Z,1008.54
2018-01-14T01:58:16.755Z,1008.54
2018-01-14T01:59:16.746Z,1008.44
2018-01-14T02:00:16.745Z,1008.43
2018-01-14T02:01:16.726Z,1008.40
2018-01-14T02:02:16.717Z,1008.39
2018-01-14T02:03:16.698Z,1008.43
2018-01-14T02:04:16.686Z,1008.47
2018-01-14T02:05:16.686Z,1008.46
2018-01-14T02:06:16.674Z,1008.47
2018-01-14T02:07:16.675Z,1008.46
2018-01-14T02:08:16.657Z,1008.46
2018-01-14T02:09:16.648Z,1008.46
2018-01-14T02:10:16.640Z,1008.44
2018-01-14T02:11:16.625Z,1008.47
2018-01-14T02:12:16.677Z,1008.52
2018-01-14T02:13:16.604Z,1008.52
2018-01-14T02:14:16.620Z,1008.50
2018-01-14T02:15:16.586Z,1008.54
2018-01-14T02:16:16.575Z,1008.54
2018-01-14T02:17:16.564Z,1008.58
2018-01-14T02:18:16.561Z,1008.54
2018-01-14T02:19:16.543Z,1008.57
2018-01-14T02:20:16.545Z,1008.57
2018-01-14T02:21:16.524Z,1008.55
2018-01-14T02:22:16.516Z,1008.51
2018-01-14T02:23:16.520Z,1008.53
2018-01-14T02:24:16.505Z,1008.53
2018-01-14T02:25:16.507Z,1008.49
2018-01-14T02:26:16.474Z,1008.50
2018-01-14T02:27:16.470Z,1008.54
2018-01-14T02:28:16.455Z,1008.55
2018-01-14T02:29:16.444Z,1008.48
2018-01-14T02:30:16.435Z,1008.49
2018-01-14T02:31:16.424Z,1008.47
2018-01-14T02:32:16.416Z,1008.46
2018-01-14T02:33:16.404Z,1008.49
2018-01-14T02:34:16.401Z,1008.49
2018-01-14T02:35:16.387Z,1008.51
2018-01-14T02:36:16.380Z,1008.51
2018-01-14T02:37:16.370Z,1008.48
2018-01-14T02:38:16.358Z,1008.49
2018-01-14T02:39:16.345Z,1008.44
2018-01-14T02:40:16.334Z,1008.47
2018-01-14T02:41:16.325Z,1008.47
2018-01-14T02:42:16.315Z,1008.45
2018-01-14T02:43:16.309Z,1008.47
2018-01-14T02:44:16.295Z,1008.48
2018-01-14T02:45:16.286Z,1008.47
2018-01-14T02:46:16.277Z,1008.51
2018-01-14T02:47:16.271Z,1008.54
2018-01-14T02:48:16.260Z,1008.53
2018-01-14T02:49:16.245Z,1008.49
2018-01-14T02:50:16.248Z,1008.43
2018-01-14T02:51:16.223Z,1008.46
2018-01-14T02:52:16.214Z,1008.42
2018-01-14T02:53:16.209Z,1008.36
2018-01-14T02:54:16.222Z,1008.35
2018-01-14T02:55:16.188Z,1008.31
2018-01-14T02:56:16.176Z,1008.32
2018-01-14T02:57:16.163Z,1008.34
2018-01-14T02:58:16.154Z,1008.36
2018-01-14T02:59:16.144Z,1008.39
2018-01-14T03:00:16.145Z,1008.41
2018-01-14T03:01:16.123Z,1008.45
2018-01-14T03:02:16.117Z,1008.46
2018-01-14T03:03:16.107Z,1008.45
2018-01-14T03:04:16.101Z,1008.46
2018-01-14T03:05:16.081Z,1008.50
2018-01-14T03:06:16.074Z,1008.48
2018-01-14T03:07:16.063Z,1008.53
2018-01-14T03:08:16.057Z,1008.52
2018-01-14T03:09:16.056Z,1008.52
2018-01-14T03:10:16.033Z,1008.49
2018-01-14T03:11:16.022Z,1008.51
2018-01-14T03:12:16.013Z,1008.50
2018-01-14T03:13:16.004Z,1008.51
2018-01-14T03:14:15.997Z,1008.52
2018-01-14T03:15:15.982Z,1008.53
2018-01-14T03:16:16.018Z,1008.51
2018-01-14T03:17:15.975Z,1008.47
2018-01-14T03:18:15.951Z,1008.43
2018-01-14T03:19:15.946Z,1008.50
2018-01-14T03:20:15.933Z,1008.51
2018-01-14T03:21:15.920Z,1008.52
2018-01-14T03:22:15.917Z,1008.49
2018-01-14T03:23:15.900Z,1008.51
2018-01-14T03:24:15.895Z,1008.50
2018-01-14T03:25:15.896Z,1008.50
2018-01-14T03:26:15.870Z,1008.47
2018-01-14T03:27:15.865Z,1008.44
2018-01-14T03:28:15.851Z,1008.45
2018-01-14T03:29:15.843Z,1008.42
2018-01-14T03:30:15.851Z,1008.44
2018-01-14T03:31:15.820Z,1008.45
2018-01-14T03:32:15.811Z,1008.44
2018-01-14T03:33:15.804Z,1008.39
2018-01-14T03:34:15.790Z,1008.44
2018-01-14T03:35:15.779Z,1008.46
2018-01-14T03:36:15.784Z,1008.43
2018-01-14T03:37:15.761Z,1008.40
2018-01-14T03:38:15.793Z,1008.42
2018-01-14T03:39:15.770Z,1008.38
2018-01-14T03:40:15.728Z,1008.40
2018-01-14T03:41:15.717Z,1008.39
2018-01-14T03:42:15.713Z,1008.39
2018-01-14T03:43:15.697Z,1008.44
2018-01-14T03:44:15.689Z,1008.41
2018-01-14T03:45:15.676Z,1008.44
2018-01-14T03:46:15.746Z,1008.37
2018-01-14T03:47:15.678Z,1008.41
2018-01-14T03:48:15.648Z,1008.50
2018-01-14T03:49:15.634Z,1008.40
2018-01-14T03:50:15.624Z,1008.47
2018-01-14T03:51:15.642Z,1008.39
2018-01-14T03:52:15.693Z,1008.36
2018-01-14T03:53:15.592Z,1008.39
2018-01-14T03:54:15.591Z,1008.37
2018-01-14T03:55:16.117Z,1008.36
2018-01-14T03:56:15.559Z,1008.42
2018-01-14T03:57:15.540Z,1008.39
2018-01-14T03:58:15.570Z,1008.40
2018-01-14T03:59:15.536Z,1008.48
2018-01-14T04:00:15.520Z,1008.48
2018-01-14T04:01:15.509Z,1008.48
2018-01-14T04:02:15.498Z,1008.46
2018-01-14T04:03:15.489Z,1008.40
2018-01-14T04:04:15.477Z,1008.36
2018-01-14T04:05:15.522Z,1008.38
2018-01-14T04:06:15.467Z,1008.41
2018-01-14T04:07:15.448Z,1008.44
2018-01-14T04:08:15.437Z,1008.42
2018-01-14T04:09:15.429Z,1008.37
2018-01-14T04:10:15.416Z,1008.33
2018-01-14T04:11:15.405Z,1008.41
2018-01-14T04:12:15.395Z,1008.45
2018-01-14T04:13:15.384Z,1008.47
2018-01-14T04:14:15.384Z,1008.45
2018-01-14T04:15:15.379Z,1008.41
2018-01-14T04:16:15.356Z,1008.47
2018-01-14T04:17:15.342Z,1008.45
2018-01-14T04:18:36.342Z,1008.46
2018-01-14T04:19:15.327Z,1008.44
2018-01-14T04:20:15.319Z,1008.46
2018-01-14T04:21:17.322Z,1008.43
2018-01-14T04:22:15.281Z,1008.44
2018-01-14T04:23:15.276Z,1008.38
2018-01-14T04:24:15.273Z,1008.40
2018-01-14T04:25:15.260Z,1008.39
2018-01-14T04:26:15.249Z,1008.36
2018-01-14T04:27:15.239Z,1008.36
2018-01-14T04:28:15.259Z,1008.37
2018-01-14T04:29:15.230Z,1008.36
2018-01-14T04:30:15.235Z,1008.40
2018-01-14T04:31:15.196Z,1008.39
2018-01-14T04:32:15.187Z,1008.36
2018-01-14T04:33:15.180Z,1008.39
2018-01-14T04:34:15.167Z,1008.36
2018-01-14T04:35:15.162Z,1008.39
2018-01-14T04:36:15.153Z,1008.46
2018-01-14T04:37:15.134Z,1008.42
2018-01-14T04:38:15.124Z,1008.42
2018-01-14T04:39:15.162Z,1008.37
2018-01-14T04:40:15.112Z,1008.40
2018-01-14T04:41:15.093Z,1008.36
2018-01-14T04:42:15.082Z,1008.40
2018-01-14T04:43:15.072Z,1008.35
2018-01-14T04:44:15.064Z,1008.37
2018-01-14T04:45:17.626Z,1008.36
2018-01-14T04:46:15.032Z,1008.27
2018-01-14T04:47:15.041Z,1008.27
2018-01-14T04:48:15.022Z,1008.31
2018-01-14T04:49:15.010Z,1008.26
2018-01-14T04:50:15.036Z,1008.25
2018-01-14T04:51:14.994Z,1008.29
2018-01-14T04:52:14.990Z,1008.33
2018-01-14T04:53:14.969Z,1008.30
2018-01-14T04:54:14.958Z,1008.29
2018-01-14T04:55:14.948Z,1008.31
2018-01-14T04:56:14.938Z,1008.29
2018-01-14T04:57:14.927Z,1008.28
2018-01-14T04:58:14.938Z,1008.30
2018-01-14T04:59:14.910Z,1008.25
2018-01-14T05:00:14.897Z,1008.22
2018-01-14T05:01:14.889Z,1008.28
2018-01-14T05:02:14.878Z,1008.27
2018-01-14T05:03:14.870Z,1008.26
2018-01-14T05:04:14.857Z,1008.28
2018-01-14T05:05:14.846Z,1008.30
2018-01-14T05:06:14.836Z,1008.28
2018-01-14T05:07:14.826Z,1008.29
2018-01-14T05:08:14.815Z,1008.30
2018-01-14T05:09:14.805Z,1008.31
2018-01-14T05:10:14.795Z,1008.29
2018-01-14T05:11:14.797Z,1008.27
2018-01-14T05:12:14.775Z,1008.27
2018-01-14T05:13:14.765Z,1008.25
2018-01-14T05:14:14.755Z,1008.31
2018-01-14T05:15:14.746Z,1008.29
2018-01-14T05:16:14.734Z,1008.31
2018-01-14T05:17:14.723Z,1008.32
2018-01-14T05:18:14.714Z,1008.32
2018-01-14T05:19:14.713Z,1008.33
2018-01-14T05:20:14.693Z,1008.33
2018-01-14T05:21:14.688Z,1008.37
2018-01-14T05:22:14.697Z,1008.38
2018-01-14T05:23:14.682Z,1008.40
2018-01-14T05:24:14.672Z,1008.42
2018-01-14T05:25:14.703Z,1008.37
2018-01-14T05:26:14.633Z,1008.37
2018-01-14T05:27:14.623Z,1008.39
2018-01-14T05:28:15.621Z,1008.35
2018-01-14T05:29:14.593Z,1008.39
2018-01-14T05:30:14.584Z,1008.37
2018-01-14T05:31:14.585Z,1008.37
2018-01-14T05:32:14.573Z,1008.38
2018-01-14T05:33:14.565Z,1008.35
2018-01-14T05:34:14.554Z,1008.41
2018-01-14T05:35:14.543Z,1008.36
2018-01-14T05:36:14.542Z,1008.43
2018-01-14T05:37:14.523Z,1008.42
2018-01-14T05:38:14.514Z,1008.45
2018-01-14T05:39:14.504Z,1008.47
2018-01-14T05:40:14.493Z,1008.48
2018-01-14T05:41:14.487Z,1008.49
2018-01-14T05:42:14.473Z,1008.43
2018-01-14T05:43:14.464Z,1008.42
2018-01-14T05:44:14.455Z,1008.43
2018-01-14T05:45:14.444Z,1008.43
2018-01-14T05:46:14.433Z,1008.44
2018-01-14T05:47:14.426Z,1008.46
2018-01-14T05:48:14.417Z,1008.52
2018-01-14T05:49:14.404Z,1008.51
2018-01-14T05:50:14.397Z,1008.45
2018-01-14T05:51:14.384Z,1008.50
2018-01-14T05:52:14.374Z,1008.47
2018-01-14T05:53:14.365Z,1008.51
2018-01-14T05:54:14.355Z,1008.51
2018-01-14T05:55:14.345Z,1008.56
2018-01-14T05:56:14.369Z,1008.51
2018-01-14T05:57:14.324Z,1008.50
2018-01-14T05:58:15.278Z,1008.54
2018-01-14T05:59:14.311Z,1008.57
2018-01-14T06:00:14.293Z,1008.56
2018-01-14T06:01:14.284Z,1008.55
2018-01-14T06:02:14.275Z,1008.56
2018-01-14T06:03:14.266Z,1008.54
2018-01-14T06:04:14.256Z,1008.54
2018-01-14T06:05:14.246Z,1008.51
2018-01-14T06:06:14.653Z,1008.54
2018-01-14T06:07:14.226Z,1008.52
2018-01-14T06:08:14.217Z,1008.55
2018-01-14T06:09:14.208Z,1008.57
2018-01-14T06:10:14.198Z,1008.55
2018-01-14T06:11:14.186Z,1008.56
2018-01-14T06:12:14.177Z,1008.57
2018-01-14T06:13:14.167Z,1008.58
2018-01-14T06:14:14.157Z,1008.59
2018-01-14T06:15:14.148Z,1008.57
2018-01-14T06:16:14.138Z,1008.61
2018-01-14T06:17:14.126Z,1008.57
2018-01-14T06:18:14.117Z,1008.60
2018-01-14T06:19:14.107Z,1008.60
2018-01-14T06:20:14.097Z,1008.63
2018-01-14T06:21:14.093Z,1008.62
2018-01-14T06:22:14.077Z,1008.58
2018-01-14T06:23:14.070Z,1008.61
2018-01-14T06:24:14.058Z,1008.55
2018-01-14T06:25:14.062Z,1008.51
2018-01-14T06:26:14.043Z,1008.56
2018-01-14T06:27:14.028Z,1008.55
2018-01-14T06:28:14.017Z,1008.58
2018-01-14T06:29:14.008Z,1008.51
2018-01-14T06:30:13.998Z,1008.59
2018-01-14T06:31:13.987Z,1008.62
2018-01-14T06:32:13.981Z,1008.59
2018-01-14T06:33:13.968Z,1008.61
2018-01-14T06:34:13.957Z,1008.63
2018-01-14T06:35:13.947Z,1008.63
2018-01-14T06:36:13.938Z,1008.64
2018-01-14T06:37:13.929Z,1008.63
2018-01-14T06:38:13.922Z,1008.57
2018-01-14T06:39:13.911Z,1008.57
2018-01-14T06:40:13.905Z,1008.63
2018-01-14T06:41:13.887Z,1008.61
2018-01-14T06:42:13.880Z,1008.63
2018-01-14T06:43:13.869Z,1008.60
2018-01-14T06:44:13.858Z,1008.58
2018-01-14T06:45:13.848Z,1008.55
2018-01-14T06:46:13.841Z,1008.54
2018-01-14T06:47:13.830Z,1008.55
2018-01-14T06:48:13.819Z,1008.55
2018-01-14T06:49:13.809Z,1008.55
2018-01-14T06:50:13.800Z,1008.59
2018-01-14T06:51:13.790Z,1008.59
2018-01-14T06:52:13.780Z,1008.54
2018-01-14T06:53:13.770Z,1008.53
2018-01-14T06:54:13.760Z,1008.52
2018-01-14T06:55:13.751Z,1008.53
2018-01-14T06:56:13.741Z,1008.56
2018-01-14T06:57:13.731Z,1008.59
2018-01-14T06:58:13.722Z,1008.60
2018-01-14T06:59:13.713Z,1008.61
2018-01-14T07:00:13.703Z,1008.59
2018-01-14T07:01:13.696Z,1008.60
2018-01-14T07:02:13.737Z,1008.59
2018-01-14T07:03:13.673Z,1008.56
2018-01-14T07:04:13.664Z,1008.58
2018-01-14T07:05:13.653Z,1008.55
2018-01-14T07:06:13.645Z,1008.52
2018-01-14T07:07:13.634Z,1008.56
2018-01-14T07:08:13.625Z,1008.52
2018-01-14T07:09:13.613Z,1008.58
2018-01-14T07:10:13.605Z,1008.59
2018-01-14T07:11:13.595Z,1008.59
2018-01-14T07:12:13.586Z,1008.60
2018-01-14T07:13:13.575Z,1008.63
2018-01-14T07:14:13.568Z,1008.62
2018-01-14T07:15:13.558Z,1008.66
2018-01-14T07:16:13.550Z,1008.66
2018-01-14T07:17:13.536Z,1008.66
2018-01-14T07:18:13.527Z,1008.69
2018-01-14T07:19:13.519Z,1008.62
2018-01-14T07:20:13.509Z,1008.64
2018-01-14T07:21:13.500Z,1008.65
2018-01-14T07:22:13.491Z,1008.65
2018-01-14T07:23:13.481Z,1008.62
2018-01-14T07:24:13.474Z,1008.69
2018-01-14T07:25:13.463Z,1008.69
2018-01-14T07:26:13.464Z,1008.71
2018-01-14T07:27:13.436Z,1008.71
2018-01-14T07:28:13.427Z,1008.73
2018-01-14T07:29:13.426Z,1008.72
2018-01-14T07:30:13.419Z,1008.73
2018-01-14T07:31:13.408Z,1008.77
2018-01-14T07:32:13.400Z,1008.78
2018-01-14T07:33:13.389Z,1008.76
2018-01-14T07:34:13.382Z,1008.72
2018-01-14T07:35:13.370Z,1008.77
2018-01-14T07:36:13.361Z,1008.76
2018-01-14T07:37:13.356Z,1008.78
2018-01-14T07:38:13.342Z,1008.75
2018-01-14T07:39:13.333Z,1008.77
2018-01-14T07:40:13.324Z,1008.77
2018-01-14T07:41:13.312Z,1008.78
2018-01-14T07:42:13.303Z,1008.78
2018-01-14T07:43:13.296Z,1008.77
2018-01-14T07:44:13.285Z,1008.77
2018-01-14T07:45:13.274Z,1008.71
2018-01-14T07:46:13.272Z,1008.74
2018-01-14T07:47:13.255Z,1008.75
2018-01-14T07:48:13.246Z,1008.77
2018-01-14T07:49:13.236Z,1008.80
2018-01-14T07:50:13.227Z,1008.77
2018-01-14T07:51:13.218Z,1008.78
2018-01-14T07:52:13.197Z,1008.77
2018-01-14T07:53:13.186Z,1008.74
2018-01-14T07:54:13.195Z,1008.75
2018-01-14T07:55:13.178Z,1008.72
2018-01-14T07:56:13.169Z,1008.73
2018-01-14T07:57:13.157Z,1008.74
2018-01-14T07:58:13.149Z,1008.72
2018-01-14T07:59:13.141Z,1008.68
2018-01-14T08:00:13.130Z,1008.70
2018-01-14T08:01:13.119Z,1008.68
2018-01-14T08:02:13.225Z,1008.67
2018-01-14T08:03:13.100Z,1008.64
2018-01-14T08:04:13.092Z,1008.63
2018-01-14T08:05:13.082Z,1008.65
2018-01-14T08:06:13.070Z,1008.61
2018-01-14T08:07:13.063Z,1008.61
2018-01-14T08:08:13.053Z,1008.59
2018-01-14T08:09:13.044Z,1008.63
2018-01-14T08:10:13.032Z,1008.68
2018-01-14T08:11:13.021Z,1008.70
2018-01-14T08:12:13.012Z,1008.67
2018-01-14T08:13:13.001Z,1008.72
2018-01-14T08:14:12.991Z,1008.71
2018-01-14T08:15:12.986Z,1008.69
2018-01-14T08:16:12.974Z,1008.69
2018-01-14T08:17:12.962Z,1008.65
2018-01-14T08:18:12.957Z,1008.64
2018-01-14T08:19:12.944Z,1008.63
2018-01-14T08:20:12.951Z,1008.65
2018-01-14T08:21:12.925Z,1008.64
2018-01-14T08:22:12.914Z,1008.66
2018-01-14T08:23:12.917Z,1008.69
2018-01-14T08:24:12.895Z,1008.68
2018-01-14T08:25:12.884Z,1008.72
2018-01-14T08:26:12.875Z,1008.75
2018-01-14T08:27:12.866Z,1008.76
2018-01-14T08:28:12.857Z,1008.77
2018-01-14T08:29:12.845Z,1008.77
2018-01-14T08:30:12.836Z,1008.86
2018-01-14T08:31:12.830Z,1008.81
2018-01-14T08:32:12.824Z,1008.84
2018-01-14T08:33:12.807Z,1008.83
2018-01-14T08:34:12.798Z,1008.83
2018-01-14T08:35:12.790Z,1008.88
2018-01-14T08:36:12.779Z,1008.89
2018-01-14T08:37:12.768Z,1008.86
2018-01-14T08:38:12.759Z,1008.87
2018-01-14T08:39:12.750Z,1008.84
2018-01-14T08:40:12.740Z,1008.87
2018-01-14T08:41:12.731Z,1008.83
2018-01-14T08:42:12.721Z,1008.85
2018-01-14T08:43:12.712Z,1008.77
2018-01-14T08:44:12.703Z,1008.73
2018-01-14T08:45:12.695Z,1008.72
2018-01-14T08:46:12.682Z,1008.79
2018-01-14T08:47:12.674Z,1008.78
2018-01-14T08:48:12.667Z,1008.82
2018-01-14T08:49:12.654Z,1008.84
2018-01-14T08:50:12.645Z,1008.85
2018-01-14T08:51:12.636Z,1008.86
2018-01-14T08:52:12.626Z,1008.87
2018-01-14T08:53:12.617Z,1008.92
2018-01-14T08:54:12.615Z,1008.86
2018-01-14T08:55:12.600Z,1008.88
2018-01-14T08:56:12.588Z,1008.91
2018-01-14T08:57:12.578Z,1008.90
2018-01-14T08:58:12.571Z,1008.90
2018-01-14T08:59:12.560Z,1008.87
2018-01-14T09:00:12.552Z,1008.92
2018-01-14T09:01:12.542Z,1008.93
2018-01-14T09:02:12.532Z,1008.94
2018-01-14T09:03:12.523Z,1008.92
2018-01-14T09:04:12.514Z,1008.95
2018-01-14T09:05:12.503Z,1008.91
2018-01-14T09:06:12.495Z,1008.91
2018-01-14T09:07:12.487Z,1008.94
2018-01-14T09:08:12.476Z,1008.97
2018-01-14T09:09:12.465Z,1008.94
2018-01-14T09:10:12.456Z,1008.90
2018-01-14T09:11:12.447Z,1008.86
2018-01-14T09:12:12.438Z,1008.83
2018-01-14T09:13:12.430Z,1008.87
2018-01-14T09:14:12.419Z,1008.87
2018-01-14T09:15:12.410Z,1008.86
2018-01-14T09:16:12.401Z,1008.81
2018-01-14T09:17:12.390Z,1008.84
2018-01-14T09:18:12.382Z,1008.86
2018-01-14T09:19:12.376Z,1008.88
2018-01-14T09:20:12.363Z,1008.91
2018-01-14T09:21:12.351Z,1008.91
2018-01-14T09:22:12.343Z,1008.90
2018-01-14T09:23:12.334Z,1008.93
2018-01-14T09:24:12.324Z,1008.96
2018-01-14T09:25:12.314Z,1008.95
2018-01-14T09:26:12.305Z,1009.02
2018-01-14T09:27:12.296Z,1008.97
2018-01-14T09:28:12.287Z,1009.00
2018-01-14T09:29:12.277Z,1008.97
2018-01-14T09:30:12.267Z,1008.96
2018-01-14T09:31:12.258Z,1008.95
2018-01-14T09:32:12.250Z,1008.96
2018-01-14T09:33:12.240Z,1008.96
2018-01-14T09:34:12.239Z,1008.95
2018-01-14T09:35:12.219Z,1008.93
2018-01-14T09:36:12.210Z,1008.90
2018-01-14T09:37:12.199Z,1008.92
2018-01-14T09:38:12.189Z,1008.91
2018-01-14T09:39:12.180Z,1008.89
2018-01-14T09:40:12.174Z,1008.88
2018-01-14T09:41:12.161Z,1008.90
2018-01-14T09:42:12.150Z,1008.88
2018-01-14T09:43:12.141Z,1008.86
2018-01-14T09:44:12.139Z,1008.81
2018-01-14T09:45:12.121Z,1008.83
2018-01-14T09:46:12.112Z,1008.85
2018-01-14T09:47:12.102Z,1008.79
2018-01-14T09:48:12.092Z,1008.83
2018-01-14T09:49:12.082Z,1008.81
2018-01-14T09:50:12.087Z,1008.81
2018-01-14T09:51:12.064Z,1008.79
2018-01-14T09:52:12.054Z,1008.84
2018-01-14T09:53:12.044Z,1008.82
2018-01-14T09:54:12.034Z,1008.80
2018-01-14T09:55:12.025Z,1008.78
2018-01-14T09:56:12.020Z,1008.79
2018-01-14T09:57:12.006Z,1008.78
2018-01-14T09:58:11.998Z,1008.77
2018-01-14T09:59:11.985Z,1008.78
2018-01-14T10:00:11.985Z,1008.79
2018-01-14T10:01:11.966Z,1008.78
2018-01-14T10:02:11.959Z,1008.79
2018-01-14T10:03:11.948Z,1008.74
2018-01-14T10:04:14.728Z,1008.71
2018-01-14T10:05:12.033Z,1008.70
2018-01-14T10:07:06.375Z,1008.73
2018-01-14T10:08:06.269Z,1008.68
2018-01-14T10:10:00.621Z,1008.68
2018-01-14T10:11:00.606Z,1008.68
2018-01-14T10:12:55.014Z,1008.68
2018-01-14T10:13:54.952Z,1008.68
2018-01-14T10:15:49.316Z,1008.67
2018-01-14T10:16:49.297Z,1008.67
2018-01-14T10:18:43.701Z,1008.70
2018-01-14T10:19:43.658Z,1008.69
2018-01-14T10:21:38.006Z,1008.67
2018-01-14T10:22:37.995Z,1008.66
2018-01-14T10:24:31.556Z,1008.64
2018-01-14T10:25:31.376Z,1008.63
2018-01-14T10:27:25.808Z,1008.61
2018-01-14T10:28:25.729Z,1008.61
2018-01-14T10:30:20.179Z,1008.64
2018-01-14T10:31:20.091Z,1008.69
2018-01-14T10:33:14.505Z,1008.61
2018-01-14T10:34:14.451Z,1008.61
2018-01-14T10:36:08.806Z,1008.61
2018-01-14T10:37:08.795Z,1008.56
2018-01-14T10:39:03.197Z,1008.56
2018-01-14T10:40:03.144Z,1008.56
2018-01-14T10:41:57.507Z,1008.50
2018-01-14T10:42:57.493Z,1008.52
2018-01-14T10:44:51.947Z,1008.52
2018-01-14T10:45:51.839Z,1008.49
2018-01-14T10:47:46.231Z,1008.52
2018-01-14T10:48:46.218Z,1008.52
2018-01-14T10:50:40.610Z,1008.59
2018-01-14T10:51:40.556Z,1008.56
2018-01-14T10:53:34.913Z,1008.58
2018-01-14T10:54:34.895Z,1008.59
2018-01-14T10:56:29.298Z,1008.54
2018-01-14T10:57:29.249Z,1008.56
2018-01-14T10:59:23.785Z,1008.53
2018-01-14T11:00:23.772Z,1008.49
2018-01-14T11:02:18.238Z,1008.58
2018-01-14T11:03:18.133Z,1008.55
2018-01-14T11:05:12.497Z,1008.47
2018-01-14T11:06:12.469Z,1008.46
2018-01-14T11:08:06.871Z,1008.45
2018-01-14T11:09:06.847Z,1008.40
2018-01-14T11:11:01.170Z,1008.34
2018-01-14T11:12:01.160Z,1008.36
2018-01-14T11:13:55.590Z,1008.39
2018-01-14T11:14:55.496Z,1008.33
2018-01-14T11:16:49.854Z,1008.29
2018-01-14T11:17:49.841Z,1008.30
2018-01-14T11:19:44.330Z,1008.25
2018-01-14T11:20:44.196Z,1008.23
2018-01-14T11:22:38.568Z,1008.24
2018-01-14T11:23:38.561Z,1008.19
2018-01-14T11:25:32.959Z,1008.14
2018-01-14T11:26:32.904Z,1008.15
2018-01-14T11:28:27.304Z,1008.19
2018-01-14T11:29:27.292Z,1008.16
2018-01-14T11:31:21.698Z,1008.12
2018-01-14T11:32:21.642Z,1008.11
2018-01-14T11:34:15.999Z,1008.15
2018-01-14T11:35:15.986Z,1008.14
2018-01-14T11:37:10.870Z,1008.16
2018-01-14T11:38:10.343Z,1008.17
2018-01-14T11:40:04.756Z,1008.17
2018-01-14T11:41:04.689Z,1008.17
2018-01-14T11:43:03.897Z,1008.18
2018-01-14T11:44:03.886Z,1008.16
2018-01-14T11:45:58.304Z,1008.13
2018-01-14T11:46:58.232Z,1008.11
2018-01-14T11:48:52.590Z,1008.09
2018-01-14T11:49:52.579Z,1008.11
2018-01-14T11:51:46.982Z,1008.04
2018-01-14T11:52:46.927Z,1008.08
2018-01-14T11:54:41.393Z,1008.04
2018-01-14T11:55:41.286Z,1008.02
2018-01-14T11:57:35.844Z,1008.03
2018-01-14T11:58:35.626Z,1008.04
2018-01-14T12:00:30.082Z,1008.04
2018-01-14T12:01:29.981Z,1008.01
2018-01-14T12:03:24.334Z,1007.91
2018-01-14T12:04:24.345Z,1007.95
2018-01-14T12:06:18.726Z,1007.90
2018-01-14T12:07:18.673Z,1007.90
2018-01-14T12:09:13.069Z,1007.90
2018-01-14T12:10:13.054Z,1007.91
2018-01-14T12:12:07.561Z,1007.89
2018-01-14T12:13:07.402Z,1007.89
2018-01-14T12:15:01.807Z,1007.86
2018-01-14T12:16:01.752Z,1007.83
2018-01-14T12:17:56.171Z,1007.80
2018-01-14T12:18:56.104Z,1007.81
2018-01-14T12:20:50.489Z,1007.79
2018-01-14T12:21:50.475Z,1007.80
2018-01-14T12:23:44.882Z,1007.75
2018-01-14T12:24:44.835Z,1007.76
2018-01-14T12:26:39.233Z,1007.75
2018-01-14T12:27:39.181Z,1007.75
2018-01-14T12:29:33.546Z,1007.74
2018-01-14T12:30:33.537Z,1007.72
2018-01-14T12:32:27.986Z,1007.71
2018-01-14T12:33:27.889Z,1007.74
2018-01-14T12:35:22.365Z,1007.74
2018-01-14T12:36:22.236Z,1007.72
2018-01-14T12:38:16.606Z,1007.70
2018-01-14T12:39:16.662Z,1007.69
2018-01-14T12:41:10.981Z,1007.66
2018-01-14T12:42:11.033Z,1007.68
2018-01-14T12:44:05.296Z,1007.65
2018-01-14T12:45:05.283Z,1007.66
2018-01-14T12:47:00.290Z,1007.60
2018-01-14T12:47:59.656Z,1007.59
2018-01-14T12:49:54.749Z,1007.61
2018-01-14T12:50:54.004Z,1007.58
2018-01-14T12:52:48.434Z,1007.60
2018-01-14T12:53:48.432Z,1007.52
2018-01-14T12:55:42.833Z,1007.54
2018-01-14T12:56:42.807Z,1007.58
2018-01-14T12:58:37.470Z,1007.55
2018-01-14T12:59:37.386Z,1007.49